Time;durP1;ratioP1;P1;durP2;ratioP2;P2;SDS_P1;SDS_P2;PMS_P1;PMS_P2;Temp;Humidity;BMP_temperature;BMP_pressure;BME280_temperature;BME280_humidity;BME280_pressure;Samples;Min_cycle;Max_cycle;Signal;HPM_P1;HPM_P2
2022/05/05 00:01:45;;;;;;;0.00;0.00;;;;;;;;;;5064297;28;20545;-73
2022/05/05 00:04:11;;;;;;;0.00;0.00;;;;;;;;;;5065518;28;20289;-71
2022/05/05 00:06:37;;;;;;;0.10;0.10;;;;;;;;;;5063653;28;20243;-72
2022/05/05 00:09:04;;;;;;;0.10;0.10;;;;;;;;;;5066032;28;20210;-73
2022/05/05 00:14:28;;;;;;;0.00;0.00;;;;;;;;;;5064159;28;20194;-73
2022/05/05 00:16:57;;;;;;;0.10;0.10;;;;;;;;;;5065883;28;20241;-72
2022/05/05 00:19:23;;;;;;;0.10;0.10;;;;;;;;;;5063406;28;20399;-72
2022/05/05 00:21:50;;;;;;;0.00;0.00;;;;;;;;;;5064576;28;20236;-72
2022/05/05 00:24:16;;;;;;;0.10;0.10;;;;;;;;;;5064187;28;20273;-72
2022/05/05 00:26:43;;;;;;;0.10;0.10;;;;;;;;;;5064350;28;20475;-73
2022/05/05 00:29:09;;;;;;;0.10;0.10;;;;;;;;;;5065445;28;20214;-72
2022/05/05 00:31:35;;;;;;;0.10;0.10;;;;;;;;;;5063211;28;20473;-73
2022/05/05 00:34:04;;;;;;;0.03;0.03;;;;;;;;;;5065960;28;20261;-72
2022/05/05 00:36:30;;;;;;;0.10;0.10;;;;;;;;;;5062436;28;20490;-73
2022/05/05 00:38:56;;;;;;;0.10;0.10;;;;;;;;;;5066786;28;20252;-73
2022/05/05 00:41:22;;;;;;;0.10;0.10;;;;;;;;;;5061490;28;20401;-72
2022/05/05 00:43:49;;;;;;;0.00;0.00;;;;;;;;;;5067821;28;20256;-73
2022/05/05 00:46:15;;;;;;;0.10;0.10;;;;;;;;;;5060171;28;20311;-74
2022/05/05 00:48:42;;;;;;;0.07;0.07;;;;;;;;;;5068307;28;20207;-73
2022/05/05 00:51:10;;;;;;;0.07;0.07;;;;;;;;;;5059565;28;20262;-73
2022/05/05 00:53:36;;;;;;;0.10;0.10;;;;;;;;;;5071137;28;20233;-72
2022/05/05 00:56:05;;;;;;;0.00;0.00;;;;;;;;;;5062412;28;20281;-73
2022/05/05 00:58:31;;;;;;;0.10;0.10;;;;;;;;;;5073023;28;20254;-73
2022/05/05 01:00:59;;;;;;;0.03;0.03;;;;;;;;;;5061617;28;20243;-73
2022/05/05 01:03:25;;;;;;;0.10;0.10;;;;;;;;;;5073883;28;20211;-72
2022/05/05 01:05:54;;;;;;;0.10;0.10;;;;;;;;;;5060620;28;20241;-74
2022/05/05 01:08:22;;;;;;;0.10;0.10;;;;;;;;;;5074650;28;20210;-76
2022/05/05 01:10:48;;;;;;;0.00;0.00;;;;;;;;;;5060125;28;20240;-76
2022/05/05 01:13:15;;;;;;;0.03;0.03;;;;;;;;;;5075323;28;20204;-76
2022/05/05 01:15:41;;;;;;;0.10;0.10;;;;;;;;;;5054045;28;20253;-75
2022/05/05 01:18:07;;;;;;;0.03;0.03;;;;;;;;;;5056237;28;20218;-76
2022/05/05 01:20:43;;;;;;;0.10;0.10;;;;;;;;;;5034482;28;20294;-75
2022/05/05 01:23:11;;;;;;;0.10;0.10;;;;;;;;;;5044349;28;20484;-76
2022/05/05 01:28:21;;;;;;;0.10;0.10;;;;;;;;;;5073927;28;20206;-77
2022/05/05 01:30:48;;;;;;;0.10;0.10;;;;;;;;;;5059813;28;20254;-76
2022/05/05 01:33:15;;;;;;;0.03;0.03;;;;;;;;;;5075169;28;20205;-77
2022/05/05 01:35:42;;;;;;;0.10;0.10;;;;;;;;;;5059329;28;20297;-75
2022/05/05 01:38:09;;;;;;;0.07;0.07;;;;;;;;;;5075999;28;20236;-76
2022/05/05 01:40:36;;;;;;;0.10;0.10;;;;;;;;;;5058372;28;20291;-76
2022/05/05 01:43:03;;;;;;;0.10;0.10;;;;;;;;;;5076520;28;20287;-75
2022/05/05 01:45:29;;;;;;;0.10;0.10;;;;;;;;;;5057261;28;20606;-76
2022/05/05 01:47:56;;;;;;;0.10;0.10;;;;;;;;;;5077332;28;20221;-76
2022/05/05 01:50:22;;;;;;;0.10;0.10;;;;;;;;;;5056126;28;20204;-75
2022/05/05 01:52:49;;;;;;;0.10;0.10;;;;;;;;;;5077658;28;20189;-75
2022/05/05 01:55:15;;;;;;;0.10;0.10;;;;;;;;;;5054807;28;20260;-75
2022/05/05 01:57:43;;;;;;;0.10;0.10;;;;;;;;;;5078827;28;20196;-76
2022/05/05 02:00:10;;;;;;;0.10;0.10;;;;;;;;;;5054191;28;20247;-75
2022/05/05 02:02:37;;;;;;;0.00;0.00;;;;;;;;;;5079338;28;20235;-75
2022/05/05 02:05:03;;;;;;;0.10;0.10;;;;;;;;;;5063716;28;20547;-75
2022/05/05 02:07:30;;;;;;;0.03;0.03;;;;;;;;;;5069335;28;20270;-72
2022/05/05 02:09:56;;;;;;;0.10;0.10;;;;;;;;;;5064184;28;20205;-72
2022/05/05 02:12:22;;;;;;;0.10;0.10;;;;;;;;;;5069191;28;20281;-73
2022/05/05 02:14:50;;;;;;;0.10;0.10;;;;;;;;;;5064595;28;20209;-73
2022/05/05 02:17:16;;;;;;;0.10;0.10;;;;;;;;;;5069341;28;20554;-73
2022/05/05 02:19:42;;;;;;;0.10;0.10;;;;;;;;;;5064379;28;20436;-73
2022/05/05 02:22:08;;;;;;;0.10;0.10;;;;;;;;;;5068628;28;20238;-72
2022/05/05 02:24:35;;;;;;;0.00;0.00;;;;;;;;;;5063948;28;20265;-72
2022/05/05 02:27:01;;;;;;;0.10;0.10;;;;;;;;;;5068672;28;20470;-72
2022/05/05 02:29:27;;;;;;;0.00;0.00;;;;;;;;;;5064282;28;20248;-74
2022/05/05 02:31:55;;;;;;;0.10;0.10;;;;;;;;;;5067334;28;20258;-74
2022/05/05 02:34:21;;;;;;;0.10;0.10;;;;;;;;;;5065273;28;20206;-72
2022/05/05 02:39:31;;;;;;;0.10;0.10;;;;;;;;;;5063744;28;20532;-73
2022/05/05 02:41:57;;;;;;;0.10;0.10;;;;;;;;;;5067599;28;20292;-72
2022/05/05 02:44:24;;;;;;;0.03;0.03;;;;;;;;;;5064610;28;20505;-73
2022/05/05 02:46:50;;;;;;;0.10;0.10;;;;;;;;;;5066573;28;20252;-73
2022/05/05 02:49:18;;;;;;;0.10;0.10;;;;;;;;;;5065769;28;20429;-73
2022/05/05 02:51:45;;;;;;;0.10;0.10;;;;;;;;;;5065649;28;20247;-72
2022/05/05 02:57:00;;;;;;;0.10;0.10;;;;;;;;;;5047041;28;20293;-73
2022/05/05 02:59:26;;;;;;;0.10;0.10;;;;;;;;;;5063872;28;20204;-74
2022/05/05 03:01:53;;;;;;;0.10;0.10;;;;;;;;;;5066516;28;20295;-73
2022/05/05 03:04:20;;;;;;;0.10;0.10;;;;;;;;;;5064822;28;20259;-72
2022/05/05 03:06:46;;;;;;;0.10;0.10;;;;;;;;;;5065980;28;20253;-72
2022/05/05 03:09:13;;;;;;;0.10;0.10;;;;;;;;;;5065532;28;20211;-71
2022/05/05 03:11:39;;;;;;;0.00;0.00;;;;;;;;;;5064710;28;20280;-72
2022/05/05 03:14:05;;;;;;;0.10;0.10;;;;;;;;;;5066466;28;20206;-72
2022/05/05 03:16:31;;;;;;;0.10;0.10;;;;;;;;;;5063806;28;20240;-72
2022/05/05 03:18:58;;;;;;;0.10;0.10;;;;;;;;;;5067406;28;20202;-74
2022/05/05 03:21:25;;;;;;;0.10;0.10;;;;;;;;;;5061274;28;20426;-73
2022/05/05 03:23:51;;;;;;;0.10;0.10;;;;;;;;;;5068040;28;20577;-73
2022/05/05 03:26:18;;;;;;;0.10;0.10;;;;;;;;;;5061667;28;20311;-73
2022/05/05 03:28:44;;;;;;;0.10;0.10;;;;;;;;;;5068887;28;20210;-72
2022/05/05 03:31:10;;;;;;;0.10;0.10;;;;;;;;;;5060571;28;20251;-72
2022/05/05 03:33:37;;;;;;;0.10;0.10;;;;;;;;;;5070116;28;20200;-73
2022/05/05 03:36:03;;;;;;;0.10;0.10;;;;;;;;;;5060001;28;20300;-71
2022/05/05 03:38:31;;;;;;;0.10;0.10;;;;;;;;;;5070825;28;20249;-72
2022/05/05 03:40:57;;;;;;;0.10;0.10;;;;;;;;;;5059082;28;20243;-72
2022/05/05 03:43:23;;;;;;;0.10;0.10;;;;;;;;;;5071257;28;20604;-71
2022/05/05 03:45:49;;;;;;;0.10;0.10;;;;;;;;;;5057997;28;20600;-72
2022/05/05 03:48:17;;;;;;;0.07;0.07;;;;;;;;;;5072611;28;20435;-72
2022/05/05 03:50:43;;;;;;;0.10;0.10;;;;;;;;;;5056861;28;20290;-73
2022/05/05 03:53:09;;;;;;;0.10;0.10;;;;;;;;;;5073177;28;20191;-72
2022/05/05 03:55:37;;;;;;;0.00;0.00;;;;;;;;;;5055644;28;20244;-72
2022/05/05 03:58:03;;;;;;;0.10;0.10;;;;;;;;;;5074153;28;20245;-72
2022/05/05 04:00:30;;;;;;;0.10;0.10;;;;;;;;;;5054498;28;20246;-71
2022/05/05 04:05:43;;;;;;;0.00;0.00;;;;;;;;;;5056271;28;20291;-73
2022/05/05 04:08:09;;;;;;;0.07;0.07;;;;;;;;;;5073207;28;20242;-72
2022/05/05 04:10:37;;;;;;;0.10;0.10;;;;;;;;;;5055785;28;20623;-73
2022/05/05 04:13:03;;;;;;;0.10;0.10;;;;;;;;;;5074029;28;20203;-73
2022/05/05 04:15:30;;;;;;;0.10;0.10;;;;;;;;;;5054746;28;20270;-73
2022/05/05 04:17:57;;;;;;;0.10;0.10;;;;;;;;;;5074811;28;20199;-73
2022/05/05 04:20:23;;;;;;;0.10;0.10;;;;;;;;;;5054151;28;20231;-72
2022/05/05 04:22:50;;;;;;;0.10;0.10;;;;;;;;;;5075537;28;20279;-72
2022/05/05 04:25:17;;;;;;;0.10;0.10;;;;;;;;;;5053341;28;20275;-72
2022/05/05 04:27:45;;;;;;;0.10;0.10;;;;;;;;;;5077104;28;20196;-73
2022/05/05 04:30:14;;;;;;;0.10;0.10;;;;;;;;;;5056556;28;20255;-73
2022/05/05 04:32:40;;;;;;;0.10;0.10;;;;;;;;;;5080284;28;20211;-72
2022/05/05 04:35:07;;;;;;;0.03;0.03;;;;;;;;;;5055753;28;20198;-72
2022/05/05 04:37:33;;;;;;;0.10;0.10;;;;;;;;;;5081282;28;20248;-72
2022/05/05 04:39:59;;;;;;;0.10;0.10;;;;;;;;;;5066199;28;20266;-72
2022/05/05 04:42:26;;;;;;;0.10;0.10;;;;;;;;;;5070886;28;20240;-74
2022/05/05 04:44:54;;;;;;;0.10;0.10;;;;;;;;;;5065900;28;20225;-73
2022/05/05 04:47:20;;;;;;;0.10;0.10;;;;;;;;;;5052069;28;20249;-73
2022/05/05 04:49:46;;;;;;;0.10;0.10;;;;;;;;;;5045819;28;20208;-72
2022/05/05 04:52:12;;;;;;;0.10;0.10;;;;;;;;;;5050489;28;20247;-73
2022/05/05 04:54:38;;;;;;;0.10;0.10;;;;;;;;;;5045626;28;20227;-72
2022/05/05 04:57:05;;;;;;;0.10;0.10;;;;;;;;;;5050491;28;20246;-72
2022/05/05 04:59:31;;;;;;;0.10;0.10;;;;;;;;;;5045647;28;20255;-73
2022/05/05 05:01:59;;;;;;;0.10;0.10;;;;;;;;;;5049481;28;20241;-72
2022/05/05 05:04:25;;;;;;;0.10;0.10;;;;;;;;;;5046941;28;20297;-72
2022/05/05 05:06:51;;;;;;;0.10;0.10;;;;;;;;;;5048626;28;20239;-72
2022/05/05 05:09:17;;;;;;;0.10;0.10;;;;;;;;;;5047690;28;20206;-72
2022/05/05 05:11:44;;;;;;;0.10;0.10;;;;;;;;;;5047570;28;20236;-73
2022/05/05 05:14:10;;;;;;;0.10;0.10;;;;;;;;;;5048256;28;20251;-73
2022/05/05 05:16:36;;;;;;;0.10;0.10;;;;;;;;;;5046611;28;20245;-73
2022/05/05 05:19:05;;;;;;;0.10;0.10;;;;;;;;;;5049325;28;20208;-72
2022/05/05 05:21:31;;;;;;;0.10;0.10;;;;;;;;;;5045647;28;20245;-73
2022/05/05 05:23:59;;;;;;;0.10;0.10;;;;;;;;;;5049823;28;20535;-72
2022/05/05 05:26:25;;;;;;;0.10;0.10;;;;;;;;;;5044800;28;20285;-72
2022/05/05 05:28:51;;;;;;;0.10;0.10;;;;;;;;;;5050547;28;20429;-74
2022/05/05 05:31:18;;;;;;;0.10;0.10;;;;;;;;;;5043863;28;20288;-73
2022/05/05 05:33:44;;;;;;;0.10;0.10;;;;;;;;;;5051062;28;20458;-72
2022/05/05 05:36:11;;;;;;;0.10;0.10;;;;;;;;;;5042919;28;20308;-72
2022/05/05 05:38:38;;;;;;;0.10;0.10;;;;;;;;;;5051321;28;20232;-72
2022/05/05 05:41:04;;;;;;;0.10;0.10;;;;;;;;;;5041043;28;20290;-73
2022/05/05 05:43:31;;;;;;;0.00;0.00;;;;;;;;;;5052620;28;20225;-73
2022/05/05 05:45:57;;;;;;;0.10;0.10;;;;;;;;;;5040858;28;20243;-73
2022/05/05 05:48:23;;;;;;;0.10;0.10;;;;;;;;;;5053650;28;20196;-72
2022/05/05 05:50:49;;;;;;;0.10;0.10;;;;;;;;;;5039775;28;20243;-72
2022/05/05 05:53:17;;;;;;;0.10;0.10;;;;;;;;;;5054574;28;20208;-72
2022/05/05 05:55:43;;;;;;;0.10;0.10;;;;;;;;;;5038894;28;20241;-73
2022/05/05 05:58:10;;;;;;;0.10;0.10;;;;;;;;;;5055069;28;20206;-72
2022/05/05 06:00:38;;;;;;;0.10;0.10;;;;;;;;;;5037456;28;20278;-71
2022/05/05 06:05:48;;;;;;;0.10;0.10;;;;;;;;;;5039579;28;20291;-71
2022/05/05 06:08:14;;;;;;;0.10;0.10;;;;;;;;;;5053875;28;20207;-72
2022/05/05 06:10:42;;;;;;;0.10;0.10;;;;;;;;;;5038570;28;20453;-72
2022/05/05 06:13:09;;;;;;;0.10;0.10;;;;;;;;;;5055324;28;20235;-68
2022/05/05 06:15:35;;;;;;;0.10;0.10;;;;;;;;;;5037706;28;20237;-70
2022/05/05 06:18:01;;;;;;;0.10;0.10;;;;;;;;;;5056404;28;20212;-70
2022/05/05 06:20:27;;;;;;;0.10;0.10;;;;;;;;;;5037000;28;20248;-68
2022/05/05 06:22:54;;;;;;;0.10;0.10;;;;;;;;;;5057115;28;20234;-71
2022/05/05 06:25:23;;;;;;;0.10;0.10;;;;;;;;;;5036050;28;20529;-70
2022/05/05 06:27:51;;;;;;;0.00;0.00;;;;;;;;;;5057815;28;20259;-67
2022/05/05 06:30:19;;;;;;;0.10;0.10;;;;;;;;;;5036786;28;20232;-68
2022/05/05 06:32:46;;;;;;;0.10;0.10;;;;;;;;;;5078959;28;20201;-68
2022/05/05 06:35:13;;;;;;;0.10;0.10;;;;;;;;;;5064559;28;20205;-68
2022/05/05 06:37:40;;;;;;;0.10;0.10;;;;;;;;;;5036280;28;20299;-67
2022/05/05 06:40:09;;;;;;;0.00;0.00;;;;;;;;;;5060972;28;20212;-68
2022/05/05 06:42:36;;;;;;;0.10;0.10;;;;;;;;;;5079315;28;20248;-67
2022/05/05 06:45:05;;;;;;;0.10;0.10;;;;;;;;;;5063566;28;20203;-67
2022/05/05 06:47:35;;;;;;;0.10;0.10;;;;;;;;;;5068874;28;20247;-64
2022/05/05 06:50:02;;;;;;;0.10;0.10;;;;;;;;;;5063845;28;20284;-69
2022/05/05 06:52:28;;;;;;;0.10;0.10;;;;;;;;;;5068287;28;20304;-68
2022/05/05 06:54:54;;;;;;;0.10;0.10;;;;;;;;;;5063783;28;20201;-69
2022/05/05 06:57:20;;;;;;;0.10;0.10;;;;;;;;;;5068482;28;20243;-68
2022/05/05 06:59:47;;;;;;;0.10;0.10;;;;;;;;;;5063824;28;20436;-68
2022/05/05 07:02:14;;;;;;;0.10;0.10;;;;;;;;;;5068623;28;20341;-68
2022/05/05 07:07:25;;;;;;;0.10;0.10;;;;;;;;;;5068267;28;20282;-67
2022/05/05 07:12:35;;;;;;;0.10;0.10;;;;;;;;;;5035440;28;20207;-68
2022/05/05 07:15:01;;;;;;;0.00;0.00;;;;;;;;;;5063518;28;20236;-68
2022/05/05 07:17:29;;;;;;;0.10;0.10;;;;;;;;;;5067997;28;20291;-68
2022/05/05 07:19:55;;;;;;;0.10;0.10;;;;;;;;;;5063365;28;20252;-68
2022/05/05 07:22:22;;;;;;;0.10;0.10;;;;;;;;;;5067825;28;20244;-68
2022/05/05 07:24:48;;;;;;;0.10;0.10;;;;;;;;;;5063524;28;20407;-68
2022/05/05 07:27:14;;;;;;;0.00;0.00;;;;;;;;;;5067967;28;20418;-68
2022/05/05 07:29:41;;;;;;;0.10;0.10;;;;;;;;;;5063373;28;20253;-68
2022/05/05 07:32:07;;;;;;;0.00;0.00;;;;;;;;;;5067943;28;20249;-69
2022/05/05 07:34:35;;;;;;;0.10;0.10;;;;;;;;;;5063371;28;20498;-69
2022/05/05 07:37:02;;;;;;;0.10;0.10;;;;;;;;;;5051423;28;20277;-68
2022/05/05 07:39:28;;;;;;;0.10;0.10;;;;;;;;;;5044180;28;20205;-67
2022/05/05 07:41:54;;;;;;;0.10;0.10;;;;;;;;;;5031686;28;20560;-68
2022/05/05 07:44:20;;;;;;;0.07;0.07;;;;;;;;;;5042872;28;20224;-68
2022/05/05 07:46:47;;;;;;;0.00;0.00;;;;;;;;;;5045057;28;20244;-69
2022/05/05 07:49:13;;;;;;;0.10;0.10;;;;;;;;;;5045680;28;20231;-68
2022/05/05 07:51:41;;;;;;;0.10;0.10;;;;;;;;;;5032131;28;20290;-67
2022/05/05 07:56:51;;;;;;;0.10;0.10;;;;;;;;;;5060176;28;20615;-67
2022/05/05 07:59:18;;;;;;;0.00;0.00;;;;;;;;;;5065335;28;20206;-68
2022/05/05 08:01:44;;;;;;;0.07;0.07;;;;;;;;;;5064840;28;20251;-68
2022/05/05 08:04:11;;;;;;;0.00;0.00;;;;;;;;;;5069024;28;20224;-68
2022/05/05 08:06:37;;;;;;;0.10;0.10;;;;;;;;;;5067832;28;20250;-68
2022/05/05 08:09:04;;;;;;;0.10;0.10;;;;;;;;;;5070588;28;20213;-67
2022/05/05 08:11:31;;;;;;;0.10;0.10;;;;;;;;;;5067432;28;20575;-66
2022/05/05 08:13:57;;;;;;;0.03;0.03;;;;;;;;;;5071313;28;20205;-68
2022/05/05 08:16:23;;;;;;;0.10;0.10;;;;;;;;;;5065766;28;20302;-71
2022/05/05 08:18:50;;;;;;;0.10;0.10;;;;;;;;;;5072557;28;20205;-70
2022/05/05 08:21:16;;;;;;;0.10;0.10;;;;;;;;;;5065359;28;20245;-70
2022/05/05 08:23:42;;;;;;;0.03;0.03;;;;;;;;;;5073123;28;20293;-70
2022/05/05 08:28:54;;;;;;;0.10;0.10;;;;;;;;;;5072624;28;20508;-75
2022/05/05 08:31:20;;;;;;;0.00;0.00;;;;;;;;;;5065760;28;20447;-72
2022/05/05 08:33:47;;;;;;;0.10;0.10;;;;;;;;;;5072412;28;20243;-72
2022/05/05 08:36:14;;;;;;;0.00;0.00;;;;;;;;;;5064883;28;20558;-72
2022/05/05 08:38:41;;;;;;;0.10;0.10;;;;;;;;;;5073379;28;20280;-72
2022/05/05 08:41:11;;;;;;;0.03;0.03;;;;;;;;;;5062893;28;20246;-75
2022/05/05 08:43:38;;;;;;;0.03;0.03;;;;;;;;;;5075028;28;20232;-74
2022/05/05 08:46:04;;;;;;;0.00;0.00;;;;;;;;;;5063642;28;20242;-75
2022/05/05 08:48:32;;;;;;;0.10;0.10;;;;;;;;;;5075211;28;20204;-73
2022/05/05 08:51:00;;;;;;;0.10;0.10;;;;;;;;;;5062331;28;20421;-77
2022/05/05 08:53:30;;;;;;;0.10;0.10;;;;;;;;;;5074971;28;20519;-72
2022/05/05 08:55:56;;;;;;;0.10;0.10;;;;;;;;;;5062142;28;20246;-69
2022/05/05 08:58:24;;;;;;;0.10;0.10;;;;;;;;;;5075037;28;20382;-72
2022/05/05 09:00:52;;;;;;;0.00;0.00;;;;;;;;;;5062485;28;20415;-74
2022/05/05 09:03:18;;;;;;;0.00;0.00;;;;;;;;;;5077141;28;20228;-72
2022/05/05 09:05:49;;;;;;;0.00;0.00;;;;;;;;;;5061948;28;20585;-78
2022/05/05 09:08:27;;;;;;;0.05;0.05;;;;;;;;;;5077081;28;20222;-78
2022/05/05 09:10:54;;;;;;;0.00;0.00;;;;;;;;;;5062717;28;20240;-81
2022/05/05 09:13:21;;;;;;;0.10;0.10;;;;;;;;;;5076486;28;20488;-79
2022/05/05 09:15:49;;;;;;;0.10;0.10;;;;;;;;;;5061964;28;20249;-79
2022/05/05 09:18:16;;;;;;;0.00;0.00;;;;;;;;;;5076651;28;20216;-78
2022/05/05 09:20:43;;;;;;;0.00;0.00;;;;;;;;;;5059442;28;20241;-76
2022/05/05 09:23:09;;;;;;;0.10;0.10;;;;;;;;;;5077990;28;20308;-76
2022/05/05 09:25:45;;;;;;;0.00;0.00;;;;;;;;;;5060103;28;20240;-78
2022/05/05 09:28:18;;;;;;;0.00;0.00;;;;;;;;;;5080569;28;20213;-75
2022/05/05 09:30:49;;;;;;;0.10;0.10;;;;;;;;;;5063166;28;20280;-70
2022/05/05 09:33:16;;;;;;;0.10;0.10;;;;;;;;;;5078191;28;20269;-68
2022/05/05 09:35:43;;;;;;;0.05;0.05;;;;;;;;;;5060703;28;20242;-78
2022/05/05 09:38:10;;;;;;;0.00;0.00;;;;;;;;;;5077035;28;20213;-74
2022/05/05 09:40:36;;;;;;;0.00;0.00;;;;;;;;;;5061214;28;20241;-73
2022/05/05 09:43:02;;;;;;;0.10;0.10;;;;;;;;;;5078094;28;20387;-75
2022/05/05 09:45:30;;;;;;;0.00;0.00;;;;;;;;;;5060817;28;20236;-82
2022/05/05 09:47:59;;;;;;;0.10;0.10;;;;;;;;;;5080227;28;20214;-80
2022/05/05 09:50:26;;;;;;;0.00;0.00;;;;;;;;;;5059544;28;20243;-78
2022/05/05 09:58:22;;;;;;;0.10;0.10;;;;;;;;;;5076318;28;20241;-80
2022/05/05 10:01:05;;;;;;;0.00;0.00;;;;;;;;;;5062512;28;20251;-80
2022/05/05 10:06:25;;;;;;;0.00;0.00;;;;;;;;;;5066288;28;20488;-79
2022/05/05 10:08:53;;;;;;;0.00;0.00;;;;;;;;;;5073411;28;20212;-75
2022/05/05 10:11:19;;;;;;;0.00;0.00;;;;;;;;;;5065761;28;20586;-81
2022/05/05 10:13:46;;;;;;;0.00;0.00;;;;;;;;;;5071773;28;20243;-77
2022/05/05 10:16:14;;;;;;;0.00;0.00;;;;;;;;;;5065616;28;20454;-83
2022/05/05 10:18:42;;;;;;;0.00;0.00;;;;;;;;;;5074928;28;20251;-82
2022/05/05 10:21:10;;;;;;;0.00;0.00;;;;;;;;;;5063618;28;20283;-79
2022/05/05 10:23:56;;;;;;;0.00;0.00;;;;;;;;;;5072986;28;20435;-81
2022/05/05 10:26:23;;;;;;;0.00;0.00;;;;;;;;;;5064243;28;20529;-81
2022/05/05 10:28:49;;;;;;;0.00;0.00;;;;;;;;;;5071451;28;20207;-78
2022/05/05 10:31:30;;;;;;;0.00;0.00;;;;;;;;;;5063983;28;20299;-76
2022/05/05 10:34:02;;;;;;;0.00;0.00;;;;;;;;;;5070113;28;20195;-80
2022/05/05 10:36:29;;;;;;;0.00;0.00;;;;;;;;;;5065673;28;20270;-76
2022/05/05 10:38:55;;;;;;;0.00;0.00;;;;;;;;;;5071411;28;20207;-74
2022/05/05 10:41:39;;;;;;;0.00;0.00;;;;;;;;;;5065135;28;20246;-76
2022/05/05 10:44:24;;;;;;;0.00;0.00;;;;;;;;;;5069902;28;20237;-74
2022/05/05 10:46:54;;;;;;;0.00;0.00;;;;;;;;;;5071610;28;20280;-77
2022/05/05 10:49:54;;;;;;;0.10;0.10;;;;;;;;;;5070096;28;20249;-73
2022/05/05 10:52:31;;;;;;;0.00;0.00;;;;;;;;;;4976802;28;20245;-76
2022/05/05 10:55:18;;;;;;;0.00;0.00;;;;;;;;;;4984859;28;20221;-76
2022/05/05 10:57:44;;;;;;;0.00;0.00;;;;;;;;;;5034468;28;20226;-72
2022/05/05 11:00:11;;;;;;;0.00;0.00;;;;;;;;;;5053691;28;20275;-71
2022/05/05 11:02:37;;;;;;;0.00;0.00;;;;;;;;;;5078299;28;20196;-72
2022/05/05 11:05:24;;;;;;;0.10;0.10;;;;;;;;;;5063219;28;20228;-73
2022/05/05 11:07:52;;;;;;;0.00;0.00;;;;;;;;;;5035256;28;20212;-73
2022/05/05 11:10:33;;;;;;;0.00;0.00;;;;;;;;;;5054333;28;20241;-73
2022/05/05 11:12:59;;;;;;;0.00;0.00;;;;;;;;;;5072175;28;20261;-72
2022/05/05 11:23:57;;;;;;;0.00;0.00;;;;;;;;;;5069276;28;20426;-73
2022/05/05 11:26:23;;;;;;;0.00;0.00;;;;;;;;;;5062753;28;20427;-72
2022/05/05 11:28:50;;;;;;;0.10;0.10;;;;;;;;;;5068432;28;20219;-71
2022/05/05 11:31:19;;;;;;;0.10;0.10;;;;;;;;;;5060679;28;20276;-71
2022/05/05 11:33:47;;;;;;;0.00;0.00;;;;;;;;;;5069977;28;20210;-70
2022/05/05 11:36:14;;;;;;;0.00;0.00;;;;;;;;;;5061402;28;20241;-72
2022/05/05 11:38:42;;;;;;;0.00;0.00;;;;;;;;;;5068796;28;20502;-73
2022/05/05 11:41:10;;;;;;;0.00;0.00;;;;;;;;;;5060149;28;20300;-73
2022/05/05 11:46:21;;;;;;;0.00;0.00;;;;;;;;;;5062206;28;20256;-72
2022/05/05 11:48:54;;;;;;;0.00;0.00;;;;;;;;;;5068749;28;20473;-73
2022/05/05 11:51:24;;;;;;;0.00;0.00;;;;;;;;;;5061819;28;20274;-71
2022/05/05 11:53:51;;;;;;;0.00;0.00;;;;;;;;;;5068197;28;20215;-74
2022/05/05 11:56:19;;;;;;;0.10;0.10;;;;;;;;;;5061514;28;20240;-72
2022/05/05 12:01:40;;;;;;;0.10;0.10;;;;;;;;;;5062869;28;20247;-72
2022/05/05 12:04:08;;;;;;;0.10;0.10;;;;;;;;;;5066576;28;20218;-71
2022/05/05 12:06:34;;;;;;;0.00;0.00;;;;;;;;;;5063910;28;20247;-70
2022/05/05 12:09:01;;;;;;;0.00;0.00;;;;;;;;;;5066493;28;20252;-72
2022/05/05 12:11:28;;;;;;;0.00;0.00;;;;;;;;;;5062975;28;20242;-72
2022/05/05 12:13:59;;;;;;;0.00;0.00;;;;;;;;;;5067592;28;20251;-70
2022/05/05 12:16:30;;;;;;;0.00;0.00;;;;;;;;;;5062430;28;20242;-70
2022/05/05 12:18:56;;;;;;;0.00;0.00;;;;;;;;;;5067845;28;20302;-70
2022/05/05 12:21:25;;;;;;;0.00;0.00;;;;;;;;;;5062078;28;20283;-70
2022/05/05 12:23:56;;;;;;;0.10;0.10;;;;;;;;;;5067962;28;20400;-72
2022/05/05 12:26:22;;;;;;;0.10;0.10;;;;;;;;;;5062733;28;20306;-70
2022/05/05 12:28:53;;;;;;;0.08;0.08;;;;;;;;;;5068741;28;20207;-70
2022/05/05 12:31:23;;;;;;;0.00;0.00;;;;;;;;;;5061740;28;20484;-71
2022/05/05 12:33:49;;;;;;;0.00;0.00;;;;;;;;;;5068388;28;20205;-69
2022/05/05 12:36:17;;;;;;;0.00;0.00;;;;;;;;;;5060723;28;20252;-71
2022/05/05 12:38:43;;;;;;;0.05;0.05;;;;;;;;;;5069171;28;20206;-72
2022/05/05 12:41:09;;;;;;;0.10;0.10;;;;;;;;;;5060104;28;20279;-72
2022/05/05 12:43:36;;;;;;;0.10;0.10;;;;;;;;;;5070296;28;20232;-72
2022/05/05 12:46:04;;;;;;;0.00;0.00;;;;;;;;;;5060313;28;20235;-68
2022/05/05 12:48:31;;;;;;;0.00;0.00;;;;;;;;;;5071388;28;20210;-70
2022/05/05 12:50:58;;;;;;;0.00;0.00;;;;;;;;;;5061527;28;20241;-70
2022/05/05 13:01:52;;;;;;;0.00;0.00;;;;;;;;;;5066121;28;20244;-77
2022/05/05 13:04:19;;;;;;;0.00;0.00;;;;;;;;;;5070446;28;20344;-73
2022/05/05 13:06:47;;;;;;;0.08;0.08;;;;;;;;;;5069856;28;20440;-74
2022/05/05 13:09:14;;;;;;;0.00;0.00;;;;;;;;;;5070153;28;20228;-76
2022/05/05 13:11:41;;;;;;;0.00;0.00;;;;;;;;;;5068774;28;20371;-75
2022/05/05 13:14:07;;;;;;;0.00;0.00;;;;;;;;;;5071660;28;20222;-74
2022/05/05 13:16:34;;;;;;;0.00;0.00;;;;;;;;;;5068469;28;20239;-76
2022/05/05 13:19:02;;;;;;;0.10;0.10;;;;;;;;;;5073793;28;20199;-75
2022/05/05 13:21:29;;;;;;;0.00;0.00;;;;;;;;;;5070557;28;20298;-78
2022/05/05 13:23:55;;;;;;;0.00;0.00;;;;;;;;;;5071787;28;20270;-74
2022/05/05 13:26:22;;;;;;;0.08;0.08;;;;;;;;;;5066400;28;20244;-74
2022/05/05 13:28:48;;;;;;;0.10;0.10;;;;;;;;;;5074474;28;20215;-82
2022/05/05 13:31:15;;;;;;;0.00;0.00;;;;;;;;;;5068530;28;20246;-84
2022/05/05 13:33:41;;;;;;;0.00;0.00;;;;;;;;;;5074474;28;20274;-81
2022/05/05 13:36:09;;;;;;;0.10;0.10;;;;;;;;;;5064692;28;20252;-80
2022/05/05 13:38:36;;;;;;;0.10;0.10;;;;;;;;;;5073767;28;20207;-81
2022/05/05 13:41:03;;;;;;;0.00;0.00;;;;;;;;;;5063294;28;20258;-83
2022/05/05 13:43:29;;;;;;;0.00;0.00;;;;;;;;;;5073746;28;20208;-82
2022/05/05 13:45:56;;;;;;;0.00;0.00;;;;;;;;;;5062153;28;20264;-81
2022/05/05 13:48:22;;;;;;;0.00;0.00;;;;;;;;;;5080861;28;20603;-81
2022/05/05 13:50:48;;;;;;;0.10;0.10;;;;;;;;;;5063191;28;20484;-79
2022/05/05 13:53:16;;;;;;;0.00;0.00;;;;;;;;;;5078568;28;20199;-79
2022/05/05 13:55:43;;;;;;;0.00;0.00;;;;;;;;;;5061658;28;20246;-82
2022/05/05 13:58:09;;;;;;;0.00;0.00;;;;;;;;;;5078690;28;20192;-84
2022/05/05 14:00:36;;;;;;;0.10;0.10;;;;;;;;;;5058937;28;20394;-70
2022/05/05 14:03:02;;;;;;;0.00;0.00;;;;;;;;;;5077636;28;20249;-78
2022/05/05 14:05:30;;;;;;;0.05;0.05;;;;;;;;;;5058913;28;20240;-78
2022/05/05 14:13:26;;;;;;;0.10;0.10;;;;;;;;;;5075401;28;20535;-77
2022/05/05 14:15:52;;;;;;;0.00;0.00;;;;;;;;;;5062228;28;20237;-78
2022/05/05 14:18:19;;;;;;;0.00;0.00;;;;;;;;;;5076254;28;20206;-75
2022/05/05 14:20:45;;;;;;;0.00;0.00;;;;;;;;;;5060229;28;20474;-79
2022/05/05 14:23:11;;;;;;;0.00;0.00;;;;;;;;;;5076922;28;20206;-75
2022/05/05 14:25:38;;;;;;;0.00;0.00;;;;;;;;;;5059839;28;20249;-76
2022/05/05 14:28:07;;;;;;;0.10;0.10;;;;;;;;;;5075547;28;20276;-76
2022/05/05 14:30:33;;;;;;;0.00;0.00;;;;;;;;;;5057590;28;20436;-76
2022/05/05 14:33:00;;;;;;;0.00;0.00;;;;;;;;;;5076203;28;20211;-76
2022/05/05 14:35:26;;;;;;;0.00;0.00;;;;;;;;;;5056613;28;20452;-77
2022/05/05 14:37:53;;;;;;;0.00;0.00;;;;;;;;;;5076987;28;20234;-77
2022/05/05 14:40:19;;;;;;;0.05;0.05;;;;;;;;;;5055544;28;20248;-70
2022/05/05 14:42:46;;;;;;;0.00;0.00;;;;;;;;;;5078215;28;20379;-79
2022/05/05 14:45:16;;;;;;;0.00;0.00;;;;;;;;;;5055389;28;20262;-77
2022/05/05 14:47:44;;;;;;;0.10;0.10;;;;;;;;;;5078025;28;20195;-81
2022/05/05 14:50:10;;;;;;;0.00;0.00;;;;;;;;;;5054735;28;20230;-76
2022/05/05 14:52:36;;;;;;;0.00;0.00;;;;;;;;;;5079015;28;20194;-75
2022/05/05 14:55:03;;;;;;;0.10;0.10;;;;;;;;;;5063987;28;20277;-76
2022/05/05 14:57:29;;;;;;;0.10;0.10;;;;;;;;;;5068772;28;20242;-75
2022/05/05 14:59:56;;;;;;;0.00;0.00;;;;;;;;;;5064439;28;20244;-80
2022/05/05 15:02:24;;;;;;;0.10;0.10;;;;;;;;;;5071059;28;20258;-77
2022/05/05 15:04:50;;;;;;;0.00;0.00;;;;;;;;;;5065436;28;20215;-81
2022/05/05 15:07:16;;;;;;;0.05;0.05;;;;;;;;;;5070957;28;20244;-83
2022/05/05 15:09:43;;;;;;;0.00;0.00;;;;;;;;;;5066109;28;20238;-82
2022/05/05 15:12:09;;;;;;;0.00;0.00;;;;;;;;;;5070484;28;20252;-79
2022/05/05 15:14:36;;;;;;;0.00;0.00;;;;;;;;;;5064815;28;20225;-81
2022/05/05 15:17:05;;;;;;;0.00;0.00;;;;;;;;;;5070313;28;20309;-80
2022/05/05 15:19:34;;;;;;;0.00;0.00;;;;;;;;;;5066124;28;20239;-82
2022/05/05 15:22:00;;;;;;;0.00;0.00;;;;;;;;;;5069957;28;20242;-82
2022/05/05 15:24:27;;;;;;;0.00;0.00;;;;;;;;;;5065573;28;20257;-83
2022/05/05 15:26:53;;;;;;;0.00;0.00;;;;;;;;;;5068326;28;20290;-80
2022/05/05 15:29:21;;;;;;;0.00;0.00;;;;;;;;;;5066917;28;20213;-82
2022/05/05 15:31:47;;;;;;;0.00;0.00;;;;;;;;;;5068443;28;20476;-81
2022/05/05 15:34:13;;;;;;;0.10;0.10;;;;;;;;;;5068661;28;20206;-81
2022/05/05 15:36:42;;;;;;;0.08;0.08;;;;;;;;;;5064814;28;20558;-76
2022/05/05 15:39:08;;;;;;;0.00;0.00;;;;;;;;;;5068488;28;20214;-77
2022/05/05 15:41:35;;;;;;;0.00;0.00;;;;;;;;;;5064976;28;20300;-77
2022/05/05 15:44:01;;;;;;;0.10;0.10;;;;;;;;;;5070167;28;20204;-77
2022/05/05 15:46:27;;;;;;;0.05;0.05;;;;;;;;;;5066912;28;20240;-76
2022/05/05 15:48:54;;;;;;;0.08;0.08;;;;;;;;;;5067781;28;20218;-72